sensor_id;sensor_type;location;lat;lon;timestamp;pressure;altitude;pressure_sealevel;temperature;humidity
3178;BME280;38141;42.666;23.344;2024-02-23T00:00:54;94419.09;;;7.31;100.00
3178;BME280;38141;42.666;23.344;2024-02-23T00:03:20;94430.50;;;7.21;100.00
3178;BME280;38141;42.666;23.344;2024-02-23T00:05:49;94405.94;;;6.93;100.00
3178;BME280;38141;42.666;23.344;2024-02-23T00:08:16;94403.94;;;6.86;100.00
3178;BME280;38141;42.666;23.344;2024-02-23T00:10:44;94419.47;;;7.00;100.00
3178;BME280;38141;42.666;23.344;2024-02-23T00:13:11;94412.28;;;7.07;100.00
3178;BME280;38141;42.666;23.344;2024-02-23T00:15:38;94400.78;;;7.10;100.00
3178;BME280;38141;42.666;23.344;2024-02-23T00:18:05;94409.66;;;7.14;100.00
3178;BME280;38141;42.666;23.344;2024-02-23T00:20:33;94423.09;;;7.14;100.00
3178;BME280;38141;42.666;23.344;2024-02-23T00:23:03;94419.91;;;7.05;100.00
3178;BME280;38141;42.666;23.344;2024-02-23T00:25:30;94418.31;;;7.01;100.00
3178;BME280;38141;42.666;23.344;2024-02-23T00:27:57;94415.38;;;6.80;100.00
3178;BME280;38141;42.666;23.344;2024-02-23T00:30:23;94393.56;;;6.85;100.00
3178;BME280;38141;42.666;23.344;2024-02-23T00:32:50;94410.50;;;6.89;100.00
3178;BME280;38141;42.666;23.344;2024-02-23T00:35:17;94421.44;;;6.73;100.00
3178;BME280;38141;42.666;23.344;2024-02-23T00:37:44;94388.03;;;6.74;100.00
3178;BME280;38141;42.666;23.344;2024-02-23T00:40:13;94409.59;;;6.78;100.00
3178;BME280;38141;42.666;23.344;2024-02-23T00:42:40;94419.72;;;6.88;100.00
3178;BME280;38141;42.666;23.344;2024-02-23T00:45:07;94409.00;;;6.91;100.00
3178;BME280;38141;42.666;23.344;2024-02-23T00:47:34;94377.91;;;6.94;100.00
3178;BME280;38141;42.666;23.344;2024-02-23T00:50:03;94384.75;;;6.88;100.00
3178;BME280;38141;42.666;23.344;2024-02-23T00:52:30;94392.50;;;6.93;100.00
3178;BME280;38141;42.666;23.344;2024-02-23T00:54:58;94382.88;;;6.92;100.00
3178;BME280;38141;42.666;23.344;2024-02-23T00:57:26;94378.44;;;7.06;100.00
3178;BME280;38141;42.666;23.344;2024-02-23T00:59:55;94391.59;;;7.15;100.00
3178;BME280;38141;42.666;23.344;2024-02-23T01:02:22;94384.28;;;7.12;100.00
3178;BME280;38141;42.666;23.344;2024-02-23T01:04:49;94385.72;;;7.06;100.00
3178;BME280;38141;42.666;23.344;2024-02-23T01:07:16;94373.75;;;7.00;100.00
3178;BME280;38141;42.666;23.344;2024-02-23T01:09:43;94369.69;;;7.13;100.00
3178;BME280;38141;42.666;23.344;2024-02-23T01:12:10;94384.59;;;7.07;100.00
3178;BME280;38141;42.666;23.344;2024-02-23T01:14:38;94373.88;;;7.10;100.00
3178;BME280;38141;42.666;23.344;2024-02-23T01:17:05;94380.53;;;7.20;100.00
3178;BME280;38141;42.666;23.344;2024-02-23T01:19:32;94373.50;;;7.08;100.00
3178;BME280;38141;42.666;23.344;2024-02-23T01:21:59;94371.19;;;7.10;100.00
3178;BME280;38141;42.666;23.344;2024-02-23T01:24:26;94368.81;;;7.05;100.00
3178;BME280;38141;42.666;23.344;2024-02-23T01:26:54;94373.44;;;7.05;100.00
3178;BME280;38141;42.666;23.344;2024-02-23T01:29:21;94370.03;;;7.08;100.00
3178;BME280;38141;42.666;23.344;2024-02-23T01:31:50;94364.88;;;6.96;100.00
3178;BME280;38141;42.666;23.344;2024-02-23T01:34:17;94363.84;;;6.74;100.00
3178;BME280;38141;42.666;23.344;2024-02-23T01:36:44;94356.50;;;6.67;100.00
3178;BME280;38141;42.666;23.344;2024-02-23T01:39:11;94351.53;;;6.73;100.00
3178;BME280;38141;42.666;23.344;2024-02-23T01:41:38;94356.59;;;6.78;100.00
3178;BME280;38141;42.666;23.344;2024-02-23T01:44:06;94346.16;;;6.73;100.00
3178;BME280;38141;42.666;23.344;2024-02-23T01:46:33;94351.72;;;6.87;100.00
3178;BME280;38141;42.666;23.344;2024-02-23T01:49:01;94346.72;;;6.86;100.00
3178;BME280;38141;42.666;23.344;2024-02-23T01:51:29;94356.94;;;7.06;100.00
3178;BME280;38141;42.666;23.344;2024-02-23T01:53:57;94361.34;;;6.88;100.00
3178;BME280;38141;42.666;23.344;2024-02-23T01:56:24;94343.31;;;6.59;100.00
3178;BME280;38141;42.666;23.344;2024-02-23T01:58:51;94345.09;;;6.48;100.00
3178;BME280;38141;42.666;23.344;2024-02-23T02:01:19;94337.44;;;6.50;100.00
3178;BME280;38141;42.666;23.344;2024-02-23T02:03:46;94338.34;;;6.61;100.00
3178;BME280;38141;42.666;23.344;2024-02-23T02:06:14;94335.00;;;6.67;100.00
3178;BME280;38141;42.666;23.344;2024-02-23T02:08:42;94328.56;;;6.76;100.00
3178;BME280;38141;42.666;23.344;2024-02-23T02:11:09;94337.00;;;6.78;100.00
3178;BME280;38141;42.666;23.344;2024-02-23T02:13:36;94329.81;;;6.85;100.00
3178;BME280;38141;42.666;23.344;2024-02-23T02:16:03;94315.63;;;6.55;100.00
3178;BME280;38141;42.666;23.344;2024-02-23T02:18:30;94325.06;;;6.72;100.00
3178;BME280;38141;42.666;23.344;2024-02-23T02:20:57;94329.66;;;6.71;100.00
3178;BME280;38141;42.666;23.344;2024-02-23T02:23:26;94319.97;;;6.63;100.00
3178;BME280;38141;42.666;23.344;2024-02-23T02:25:53;94328.97;;;6.48;100.00
3178;BME280;38141;42.666;23.344;2024-02-23T02:28:20;94334.84;;;6.57;100.00
3178;BME280;38141;42.666;23.344;2024-02-23T02:30:48;94337.63;;;6.34;100.00
3178;BME280;38141;42.666;23.344;2024-02-23T02:33:15;94335.13;;;6.48;100.00
3178;BME280;38141;42.666;23.344;2024-02-23T02:35:42;94332.94;;;6.57;100.00
3178;BME280;38141;42.666;23.344;2024-02-23T02:38:10;94328.41;;;6.65;100.00
3178;BME280;38141;42.666;23.344;2024-02-23T02:40:39;94330.00;;;6.69;100.00
3178;BME280;38141;42.666;23.344;2024-02-23T02:43:06;94340.69;;;6.62;100.00
3178;BME280;38141;42.666;23.344;2024-02-23T02:45:34;94336.78;;;6.60;100.00
3178;BME280;38141;42.666;23.344;2024-02-23T02:48:01;94352.22;;;6.63;100.00
3178;BME280;38141;42.666;23.344;2024-02-23T02:50:28;94340.38;;;6.67;100.00
3178;BME280;38141;42.666;23.344;2024-02-23T02:52:55;94334.34;;;6.48;100.00
3178;BME280;38141;42.666;23.344;2024-02-23T02:55:22;94337.84;;;6.52;100.00
3178;BME280;38141;42.666;23.344;2024-02-23T02:57:51;94340.81;;;6.43;100.00
3178;BME280;38141;42.666;23.344;2024-02-23T03:00:18;94336.72;;;6.53;100.00
3178;BME280;38141;42.666;23.344;2024-02-23T03:02:44;94341.34;;;6.56;100.00
3178;BME280;38141;42.666;23.344;2024-02-23T03:05:11;94338.59;;;6.49;100.00
3178;BME280;38141;42.666;23.344;2024-02-23T03:07:38;94339.09;;;6.32;100.00
3178;BME280;38141;42.666;23.344;2024-02-23T03:10:06;94330.81;;;6.14;100.00
3178;BME280;38141;42.666;23.344;2024-02-23T03:12:33;94331.91;;;6.36;100.00
3178;BME280;38141;42.666;23.344;2024-02-23T03:15:02;94326.78;;;6.27;100.00
3178;BME280;38141;42.666;23.344;2024-02-23T03:17:29;94337.94;;;6.29;100.00
3178;BME280;38141;42.666;23.344;2024-02-23T03:19:56;94336.53;;;5.63;100.00
3178;BME280;38141;42.666;23.344;2024-02-23T03:22:23;94348.13;;;5.67;100.00
3178;BME280;38141;42.666;23.344;2024-02-23T03:24:50;94351.44;;;5.83;100.00
3178;BME280;38141;42.666;23.344;2024-02-23T03:27:17;94327.56;;;6.01;100.00
3178;BME280;38141;42.666;23.344;2024-02-23T03:29:44;94322.34;;;6.12;100.00
3178;BME280;38141;42.666;23.344;2024-02-23T03:32:12;94335.78;;;6.12;100.00
3178;BME280;38141;42.666;23.344;2024-02-23T03:34:39;94343.69;;;6.01;100.00
3178;BME280;38141;42.666;23.344;2024-02-23T03:37:06;94339.03;;;5.98;100.00
3178;BME280;38141;42.666;23.344;2024-02-23T03:39:33;94337.44;;;5.94;100.00
3178;BME280;38141;42.666;23.344;2024-02-23T03:42:03;94339.81;;;5.99;100.00
3178;BME280;38141;42.666;23.344;2024-02-23T03:44:30;94340.16;;;5.97;100.00
3178;BME280;38141;42.666;23.344;2024-02-23T03:46:57;94318.44;;;6.06;100.00
3178;BME280;38141;42.666;23.344;2024-02-23T03:49:25;94340.13;;;6.20;100.00
3178;BME280;38141;42.666;23.344;2024-02-23T03:51:52;94352.59;;;6.09;100.00
3178;BME280;38141;42.666;23.344;2024-02-23T03:54:19;94341.31;;;5.73;100.00
3178;BME280;38141;42.666;23.344;2024-02-23T03:56:46;94342.25;;;5.85;100.00
3178;BME280;38141;42.666;23.344;2024-02-23T03:59:13;94346.72;;;6.00;100.00
3178;BME280;38141;42.666;23.344;2024-02-23T04:01:40;94344.63;;;6.12;100.00
3178;BME280;38141;42.666;23.344;2024-02-23T04:04:07;94341.25;;;6.19;100.00
3178;BME280;38141;42.666;23.344;2024-02-23T04:06:36;94338.75;;;6.03;100.00
3178;BME280;38141;42.666;23.344;2024-02-23T04:09:03;94344.25;;;5.88;100.00
3178;BME280;38141;42.666;23.344;2024-02-23T04:11:30;94345.22;;;6.02;100.00
3178;BME280;38141;42.666;23.344;2024-02-23T04:13:57;94354.31;;;5.94;100.00
3178;BME280;38141;42.666;23.344;2024-02-23T04:16:26;94342.28;;;6.11;100.00
3178;BME280;38141;42.666;23.344;2024-02-23T04:18:53;94359.44;;;6.03;100.00
3178;BME280;38141;42.666;23.344;2024-02-23T04:21:21;94338.34;;;6.05;100.00
3178;BME280;38141;42.666;23.344;2024-02-23T04:23:50;94360.22;;;5.80;100.00
3178;BME280;38141;42.666;23.344;2024-02-23T04:26:17;94353.66;;;5.78;100.00
3178;BME280;38141;42.666;23.344;2024-02-23T04:28:44;94340.97;;;5.75;100.00
3178;BME280;38141;42.666;23.344;2024-02-23T04:31:11;94333.97;;;5.93;100.00
3178;BME280;38141;42.666;23.344;2024-02-23T04:33:38;94338.16;;;5.91;100.00
3178;BME280;38141;42.666;23.344;2024-02-23T04:36:05;94348.81;;;5.64;100.00
3178;BME280;38141;42.666;23.344;2024-02-23T04:38:33;94350.09;;;5.48;100.00
3178;BME280;38141;42.666;23.344;2024-02-23T04:41:04;94358.72;;;5.60;100.00
3178;BME280;38141;42.666;23.344;2024-02-23T04:43:31;94342.63;;;5.60;100.00
3178;BME280;38141;42.666;23.344;2024-02-23T04:45:58;94348.88;;;5.68;100.00
3178;BME280;38141;42.666;23.344;2024-02-23T04:48:25;94365.47;;;5.51;100.00
3178;BME280;38141;42.666;23.344;2024-02-23T04:50:52;94363.69;;;5.58;100.00
3178;BME280;38141;42.666;23.344;2024-02-23T04:53:19;94361.06;;;5.62;100.00
3178;BME280;38141;42.666;23.344;2024-02-23T04:55:46;94352.34;;;5.68;100.00
3178;BME280;38141;42.666;23.344;2024-02-23T04:58:14;94372.03;;;5.53;100.00
3178;BME280;38141;42.666;23.344;2024-02-23T05:00:42;94352.88;;;5.55;100.00
3178;BME280;38141;42.666;23.344;2024-02-23T05:03:09;94366.72;;;5.57;100.00
3178;BME280;38141;42.666;23.344;2024-02-23T05:05:36;94365.31;;;5.40;100.00
3178;BME280;38141;42.666;23.344;2024-02-23T05:08:03;94364.22;;;5.22;100.00
3178;BME280;38141;42.666;23.344;2024-02-23T05:10:30;94381.44;;;5.21;100.00
3178;BME280;38141;42.666;23.344;2024-02-23T05:12:57;94355.94;;;5.30;100.00
3178;BME280;38141;42.666;23.344;2024-02-23T05:15:25;94352.34;;;5.46;100.00
3178;BME280;38141;42.666;23.344;2024-02-23T05:17:52;94357.56;;;5.35;100.00
3178;BME280;38141;42.666;23.344;2024-02-23T05:20:19;94384.84;;;4.99;100.00
3178;BME280;38141;42.666;23.344;2024-02-23T05:22:47;94384.34;;;5.12;100.00
3178;BME280;38141;42.666;23.344;2024-02-23T05:25:14;94407.19;;;5.25;100.00
3178;BME280;38141;42.666;23.344;2024-02-23T05:27:41;94400.81;;;5.33;100.00
3178;BME280;38141;42.666;23.344;2024-02-23T05:30:09;94383.59;;;5.57;100.00
3178;BME280;38141;42.666;23.344;2024-02-23T05:32:38;94375.66;;;5.87;100.00
3178;BME280;38141;42.666;23.344;2024-02-23T05:35:06;94393.41;;;6.18;100.00
3178;BME280;38141;42.666;23.344;2024-02-23T05:37:35;94377.72;;;5.94;100.00
3178;BME280;38141;42.666;23.344;2024-02-23T05:40:03;94386.69;;;6.57;100.00
3178;BME280;38141;42.666;23.344;2024-02-23T05:42:33;94383.88;;;6.77;100.00
3178;BME280;38141;42.666;23.344;2024-02-23T05:45:00;94395.19;;;7.26;100.00
3178;BME280;38141;42.666;23.344;2024-02-23T05:47:27;94387.84;;;7.60;100.00
3178;BME280;38141;42.666;23.344;2024-02-23T05:49:55;94387.91;;;7.67;100.00
3178;BME280;38141;42.666;23.344;2024-02-23T05:52:22;94406.03;;;7.74;100.00
3178;BME280;38141;42.666;23.344;2024-02-23T05:54:49;94415.50;;;7.97;100.00
3178;BME280;38141;42.666;23.344;2024-02-23T05:57:17;94397.81;;;8.51;100.00
3178;BME280;38141;42.666;23.344;2024-02-23T05:59:44;94382.16;;;8.71;96.28
3178;BME280;38141;42.666;23.344;2024-02-23T06:02:11;94392.31;;;9.02;93.99
3178;BME280;38141;42.666;23.344;2024-02-23T06:04:40;94409.34;;;9.27;90.49
3178;BME280;38141;42.666;23.344;2024-02-23T06:07:08;94414.47;;;9.54;87.42
3178;BME280;38141;42.666;23.344;2024-02-23T06:09:35;94406.47;;;10.35;81.74
3178;BME280;38141;42.666;23.344;2024-02-23T06:12:02;94411.81;;;10.74;79.63
3178;BME280;38141;42.666;23.344;2024-02-23T06:14:29;94425.22;;;11.13;73.80
3178;BME280;38141;42.666;23.344;2024-02-23T06:16:56;94417.06;;;11.31;71.32
3178;BME280;38141;42.666;23.344;2024-02-23T06:19:23;94413.47;;;11.55;70.50
3178;BME280;38141;42.666;23.344;2024-02-23T06:21:50;94415.88;;;12.12;66.10
3178;BME280;38141;42.666;23.344;2024-02-23T06:24:19;94433.16;;;12.76;63.96
3178;BME280;38141;42.666;23.344;2024-02-23T06:26:46;94430.38;;;12.83;62.42
3178;BME280;38141;42.666;23.344;2024-02-23T06:29:15;94405.94;;;12.83;61.96
3178;BME280;38141;42.666;23.344;2024-02-23T06:31:41;94408.16;;;12.92;60.62
3178;BME280;38141;42.666;23.344;2024-02-23T06:34:14;94420.88;;;13.02;59.42
3178;BME280;38141;42.666;23.344;2024-02-23T06:36:41;94436.25;;;13.50;58.16
3178;BME280;38141;42.666;23.344;2024-02-23T06:39:08;94440.84;;;13.56;57.37
3178;BME280;38141;42.666;23.344;2024-02-23T06:41:37;94428.25;;;13.69;57.27
3178;BME280;38141;42.666;23.344;2024-02-23T06:44:05;94422.38;;;13.44;57.37
3178;BME280;38141;42.666;23.344;2024-02-23T06:46:32;94442.34;;;14.18;56.05
3178;BME280;38141;42.666;23.344;2024-02-23T06:48:59;94437.84;;;14.81;53.80
3178;BME280;38141;42.666;23.344;2024-02-23T06:51:26;94428.78;;;15.11;52.79
3178;BME280;38141;42.666;23.344;2024-02-23T06:53:53;94431.06;;;14.19;54.07
3178;BME280;38141;42.666;23.344;2024-02-23T06:56:22;94442.63;;;15.20;52.72
3178;BME280;38141;42.666;23.344;2024-02-23T06:58:50;94434.59;;;15.33;51.64
3178;BME280;38141;42.666;23.344;2024-02-23T07:01:17;94415.63;;;15.06;51.82
3178;BME280;38141;42.666;23.344;2024-02-23T07:03:46;94416.28;;;14.90;51.79
3178;BME280;38141;42.666;23.344;2024-02-23T07:06:16;94430.38;;;15.08;52.14
3178;BME280;38141;42.666;23.344;2024-02-23T07:08:44;94444.38;;;15.50;51.30
3178;BME280;38141;42.666;23.344;2024-02-23T07:11:11;94436.47;;;15.36;50.85
3178;BME280;38141;42.666;23.344;2024-02-23T07:13:38;94423.84;;;15.26;51.32
3178;BME280;38141;42.666;23.344;2024-02-23T07:16:07;94436.94;;;15.11;50.68
3178;BME280;38141;42.666;23.344;2024-02-23T07:18:34;94438.50;;;15.32;50.73
3178;BME280;38141;42.666;23.344;2024-02-23T07:21:01;94419.47;;;15.51;50.11
3178;BME280;38141;42.666;23.344;2024-02-23T07:23:28;94413.44;;;15.80;49.45
3178;BME280;38141;42.666;23.344;2024-02-23T07:25:55;94411.41;;;14.82;51.52
3178;BME280;38141;42.666;23.344;2024-02-23T07:28:22;94425.72;;;15.88;50.16
3178;BME280;38141;42.666;23.344;2024-02-23T07:30:49;94434.25;;;16.90;47.64
3178;BME280;38141;42.666;23.344;2024-02-23T07:33:18;94439.66;;;16.62;47.63
3178;BME280;38141;42.666;23.344;2024-02-23T07:35:45;94389.03;;;16.73;47.98
3178;BME280;38141;42.666;23.344;2024-02-23T07:38:12;94379.69;;;16.87;47.50
3178;BME280;38141;42.666;23.344;2024-02-23T07:40:39;94397.13;;;16.12;49.30
3178;BME280;38141;42.666;23.344;2024-02-23T07:43:06;94409.41;;;18.26;46.56
3178;BME280;38141;42.666;23.344;2024-02-23T07:45:32;94439.53;;;20.72;42.27
3178;BME280;38141;42.666;23.344;2024-02-23T07:48:00;94450.88;;;26.54;34.03
3178;BME280;38141;42.666;23.344;2024-02-23T07:50:29;94418.81;;;26.22;32.22
3178;BME280;38141;42.666;23.344;2024-02-23T07:52:56;94416.22;;;25.46;32.72
3178;BME280;38141;42.666;23.344;2024-02-23T07:55:23;94439.75;;;26.23;31.68
3178;BME280;38141;42.666;23.344;2024-02-23T07:57:50;94423.38;;;22.80;35.10
3178;BME280;38141;42.666;23.344;2024-02-23T08:00:18;94419.13;;;19.24;41.10
3178;BME280;38141;42.666;23.344;2024-02-23T08:02:45;94416.53;;;20.38;39.80
3178;BME280;38141;42.666;23.344;2024-02-23T08:05:12;94414.94;;;20.28;40.57
3178;BME280;38141;42.666;23.344;2024-02-23T08:07:40;94424.41;;;21.62;39.11
3178;BME280;38141;42.666;23.344;2024-02-23T08:10:08;94403.59;;;20.48;39.93
3178;BME280;38141;42.666;23.344;2024-02-23T08:12:37;94418.84;;;19.66;41.51
3178;BME280;38141;42.666;23.344;2024-02-23T08:15:06;94409.56;;;21.32;40.12
3178;BME280;38141;42.666;23.344;2024-02-23T08:17:33;94408.75;;;20.95;39.63
3178;BME280;38141;42.666;23.344;2024-02-23T08:20:00;94406.50;;;20.23;40.78
3178;BME280;38141;42.666;23.344;2024-02-23T08:22:27;94399.41;;;20.34;40.69
3178;BME280;38141;42.666;23.344;2024-02-23T08:24:55;94401.19;;;22.65;37.89
3178;BME280;38141;42.666;23.344;2024-02-23T08:27:22;94401.34;;;23.18;37.09
3178;BME280;38141;42.666;23.344;2024-02-23T08:29:48;94406.34;;;23.67;36.26
3178;BME280;38141;42.666;23.344;2024-02-23T08:32:16;94416.81;;;26.53;32.59
3178;BME280;38141;42.666;23.344;2024-02-23T08:34:44;94429.88;;;32.14;27.25
3178;BME280;38141;42.666;23.344;2024-02-23T08:37:11;94406.69;;;31.95;26.50
3178;BME280;38141;42.666;23.344;2024-02-23T08:39:38;94417.44;;;34.03;24.40
3178;BME280;38141;42.666;23.344;2024-02-23T08:42:07;94410.41;;;31.65;25.89
3178;BME280;38141;42.666;23.344;2024-02-23T08:44:34;94429.22;;;35.03;22.95
3178;BME280;38141;42.666;23.344;2024-02-23T08:47:02;94420.31;;;34.57;22.93
3178;BME280;38141;42.666;23.344;2024-02-23T08:49:29;94420.97;;;30.34;26.54
3178;BME280;38141;42.666;23.344;2024-02-23T08:51:55;94403.38;;;25.89;30.56
3178;BME280;38141;42.666;23.344;2024-02-23T08:54:23;94416.78;;;22.35;34.60
3178;BME280;38141;42.666;23.344;2024-02-23T08:56:50;94402.69;;;21.37;36.45
3178;BME280;38141;42.666;23.344;2024-02-23T08:59:19;94420.13;;;21.52;36.41
3178;BME280;38141;42.666;23.344;2024-02-23T09:01:46;94404.47;;;21.12;37.17
3178;BME280;38141;42.666;23.344;2024-02-23T09:04:13;94395.53;;;21.30;36.81
3178;BME280;38141;42.666;23.344;2024-02-23T09:06:40;94405.03;;;20.71;37.61
3178;BME280;38141;42.666;23.344;2024-02-23T09:09:07;94405.91;;;21.44;37.28
3178;BME280;38141;42.666;23.344;2024-02-23T09:11:35;94416.00;;;20.00;39.25
3178;BME280;38141;42.666;23.344;2024-02-23T09:14:03;94404.91;;;22.86;34.94
3178;BME280;38141;42.666;23.344;2024-02-23T09:16:31;94412.03;;;23.49;35.21
3178;BME280;38141;42.666;23.344;2024-02-23T09:18:59;94427.75;;;27.42;30.50
3178;BME280;38141;42.666;23.344;2024-02-23T09:21:25;94426.56;;;33.43;24.33
3178;BME280;38141;42.666;23.344;2024-02-23T09:23:52;94421.63;;;35.96;22.15
3178;BME280;38141;42.666;23.344;2024-02-23T09:26:19;94418.75;;;35.24;21.45
3178;BME280;38141;42.666;23.344;2024-02-23T09:28:46;94417.44;;;32.47;24.02
3178;BME280;38141;42.666;23.344;2024-02-23T09:31:13;94428.19;;;32.05;23.83
3178;BME280;38141;42.666;23.344;2024-02-23T09:33:42;94437.66;;;34.01;22.90
3178;BME280;38141;42.666;23.344;2024-02-23T09:36:09;94428.06;;;38.14;19.68
3178;BME280;38141;42.666;23.344;2024-02-23T09:38:36;94415.56;;;38.65;19.22
3178;BME280;38141;42.666;23.344;2024-02-23T09:41:03;94427.38;;;39.78;17.85
3178;BME280;38141;42.666;23.344;2024-02-23T09:43:33;94419.97;;;38.03;18.75
3178;BME280;38141;42.666;23.344;2024-02-23T09:46:00;94413.28;;;36.70;19.58
3178;BME280;38141;42.666;23.344;2024-02-23T09:48:28;94395.28;;;31.93;22.59
3178;BME280;38141;42.666;23.344;2024-02-23T09:51:01;94391.22;;;29.49;25.13
3178;BME280;38141;42.666;23.344;2024-02-23T09:53:28;94380.69;;;29.89;24.26
3178;BME280;38141;42.666;23.344;2024-02-23T09:55:57;94382.84;;;29.49;24.79
3178;BME280;38141;42.666;23.344;2024-02-23T09:58:26;94371.66;;;26.53;27.60
3178;BME280;38141;42.666;23.344;2024-02-23T10:00:55;94398.84;;;26.80;27.92
3178;BME280;38141;42.666;23.344;2024-02-23T10:03:24;94376.06;;;27.08;27.13
3178;BME280;38141;42.666;23.344;2024-02-23T10:05:54;94357.44;;;25.57;28.78
3178;BME280;38141;42.666;23.344;2024-02-23T10:08:23;94366.75;;;27.11;27.49
3178;BME280;38141;42.666;23.344;2024-02-23T10:10:50;94342.00;;;27.13;26.43
3178;BME280;38141;42.666;23.344;2024-02-23T10:13:20;94360.03;;;27.39;26.72
3178;BME280;38141;42.666;23.344;2024-02-23T10:15:48;94339.97;;;27.83;26.09
3178;BME280;38141;42.666;23.344;2024-02-23T10:18:15;94357.25;;;27.34;27.14
3178;BME280;38141;42.666;23.344;2024-02-23T10:20:42;94355.09;;;27.66;26.78
3178;BME280;38141;42.666;23.344;2024-02-23T10:23:09;94352.53;;;25.98;28.12
3178;BME280;38141;42.666;23.344;2024-02-23T10:25:38;94344.19;;;25.66;28.96
3178;BME280;38141;42.666;23.344;2024-02-23T10:28:06;94347.78;;;25.32;29.21
3178;BME280;38141;42.666;23.344;2024-02-23T10:30:33;94327.19;;;25.13;29.51
3178;BME280;38141;42.666;23.344;2024-02-23T10:33:00;94338.25;;;24.58;29.98
3178;BME280;38141;42.666;23.344;2024-02-23T10:35:27;94331.66;;;24.06;29.77
3178;BME280;38141;42.666;23.344;2024-02-23T10:37:56;94324.88;;;24.21;30.58
3178;BME280;38141;42.666;23.344;2024-02-23T10:40:23;94322.81;;;25.27;29.24
3178;BME280;38141;42.666;23.344;2024-02-23T10:42:56;94325.72;;;25.17;29.42
3178;BME280;38141;42.666;23.344;2024-02-23T10:45:24;94324.03;;;24.65;29.85
3178;BME280;38141;42.666;23.344;2024-02-23T10:47:51;94313.06;;;24.91;29.58
3178;BME280;38141;42.666;23.344;2024-02-23T10:50:19;94316.69;;;24.27;29.63
3178;BME280;38141;42.666;23.344;2024-02-23T10:52:47;94313.75;;;24.01;30.12
3178;BME280;38141;42.666;23.344;2024-02-23T10:55:14;94300.03;;;24.07;30.71
3178;BME280;38141;42.666;23.344;2024-02-23T10:57:42;94304.25;;;24.72;29.65
3178;BME280;38141;42.666;23.344;2024-02-23T11:00:12;94304.72;;;24.50;29.43
3178;BME280;38141;42.666;23.344;2024-02-23T11:02:44;94291.03;;;24.81;29.67
3178;BME280;38141;42.666;23.344;2024-02-23T11:05:14;94279.16;;;24.06;30.23
3178;BME280;38141;42.666;23.344;2024-02-23T11:07:42;94279.63;;;24.04;29.58
3178;BME280;38141;42.666;23.344;2024-02-23T11:10:13;94278.75;;;23.39;30.39
3178;BME280;38141;42.666;23.344;2024-02-23T11:12:40;94272.53;;;23.68;30.24
3178;BME280;38141;42.666;23.344;2024-02-23T11:15:07;94276.41;;;23.76;30.14
3178;BME280;38141;42.666;23.344;2024-02-23T11:17:36;94287.00;;;23.63;30.38
3178;BME280;38141;42.666;23.344;2024-02-23T11:20:04;94289.97;;;23.07;30.44
3178;BME280;38141;42.666;23.344;2024-02-23T11:22:33;94285.47;;;24.41;28.85
3178;BME280;38141;42.666;23.344;2024-02-23T11:25:03;94278.19;;;24.78;28.31
3178;BME280;38141;42.666;23.344;2024-02-23T11:27:31;94278.66;;;24.57;28.96
3178;BME280;38141;42.666;23.344;2024-02-23T11:30:01;94268.41;;;24.63;28.79
3178;BME280;38141;42.666;23.344;2024-02-23T11:32:37;94264.13;;;23.92;29.57
3178;BME280;38141;42.666;23.344;2024-02-23T11:35:06;94264.41;;;22.35;31.25
3178;BME280;38141;42.666;23.344;2024-02-23T11:37:44;94263.38;;;22.80;30.46
3178;BME280;38141;42.666;23.344;2024-02-23T11:40:12;94261.53;;;22.29;31.35
3178;BME280;38141;42.666;23.344;2024-02-23T11:42:40;94257.84;;;22.32;31.31
3178;BME280;38141;42.666;23.344;2024-02-23T11:45:08;94260.19;;;22.72;30.28
3178;BME280;38141;42.666;23.344;2024-02-23T11:47:37;94259.06;;;22.31;30.44
3178;BME280;38141;42.666;23.344;2024-02-23T11:50:08;94276.66;;;22.34;31.24
3178;BME280;38141;42.666;23.344;2024-02-23T11:52:35;94246.88;;;21.48;31.71
3178;BME280;38141;42.666;23.344;2024-02-23T11:55:03;94251.63;;;21.48;31.58
3178;BME280;38141;42.666;23.344;2024-02-23T11:57:32;94249.03;;;21.77;31.72
3178;BME280;38141;42.666;23.344;2024-02-23T12:00:01;94246.44;;;21.83;31.77
3178;BME280;38141;42.666;23.344;2024-02-23T12:02:28;94238.38;;;20.82;32.88
3178;BME280;38141;42.666;23.344;2024-02-23T12:04:57;94247.38;;;21.28;32.59
3178;BME280;38141;42.666;23.344;2024-02-23T12:07:24;94241.22;;;21.43;32.13
3178;BME280;38141;42.666;23.344;2024-02-23T12:09:53;94218.84;;;19.86;33.64
3178;BME280;38141;42.666;23.344;2024-02-23T12:12:20;94228.19;;;19.48;33.21
3178;BME280;38141;42.666;23.344;2024-02-23T12:14:47;94236.31;;;19.61;34.56
3178;BME280;38141;42.666;23.344;2024-02-23T12:17:15;94242.19;;;19.20;32.82
3178;BME280;38141;42.666;23.344;2024-02-23T12:19:42;94226.94;;;19.19;33.06
3178;BME280;38141;42.666;23.344;2024-02-23T12:22:11;94236.06;;;19.16;34.07
3178;BME280;38141;42.666;23.344;2024-02-23T12:24:40;94220.38;;;18.73;35.13
3178;BME280;38141;42.666;23.344;2024-02-23T12:27:08;94209.31;;;18.42;35.81
3178;BME280;38141;42.666;23.344;2024-02-23T12:29:35;94216.06;;;18.50;35.57
3178;BME280;38141;42.666;23.344;2024-02-23T12:32:04;94202.81;;;18.61;36.03
3178;BME280;38141;42.666;23.344;2024-02-23T12:34:31;94200.47;;;18.38;36.38
3178;BME280;38141;42.666;23.344;2024-02-23T12:36:58;94204.91;;;18.79;35.61
3178;BME280;38141;42.666;23.344;2024-02-23T12:39:27;94202.03;;;18.60;35.49
3178;BME280;38141;42.666;23.344;2024-02-23T12:41:54;94215.09;;;19.00;35.93
3178;BME280;38141;42.666;23.344;2024-02-23T12:44:22;94197.91;;;19.08;34.33
3178;BME280;38141;42.666;23.344;2024-02-23T12:46:49;94191.56;;;18.90;34.75
3178;BME280;38141;42.666;23.344;2024-02-23T12:49:16;94181.81;;;18.67;35.82
3178;BME280;38141;42.666;23.344;2024-02-23T12:51:43;94183.94;;;18.85;35.64
3178;BME280;38141;42.666;23.344;2024-02-23T12:54:10;94170.16;;;18.54;35.30
3178;BME280;38141;42.666;23.344;2024-02-23T12:56:38;94182.22;;;18.22;36.51
3178;BME280;38141;42.666;23.344;2024-02-23T12:59:05;94175.53;;;18.23;36.55
3178;BME280;38141;42.666;23.344;2024-02-23T13:01:32;94176.00;;;18.43;36.54